Terminal Aerodrome Forecast
Issued by NWS Cleveland, OH

Home | Current Version | Previous Version | Graphics & Text | Print | Product List | Glossary On
Versions: 1 2 3 4 5 6 7 8 9 10 11 12 13 14 15 16 17 18 19 20
000
FTUS41 KCLE 021134
TAFMFD
TAF
KMFD 021134Z 0212/0312 25012KT P6SM OVC020
     FM021800 27012G20KT P6SM SCT020 OVC035
     FM030300 27006KT P6SM BKN015=

USA.gov is the U.S. government's official web portal to all federal, state and local government web resources and services.